Time;durP1;ratioP1;P1;durP2;ratioP2;P2;SDS_P1;SDS_P2;PMS_P1;PMS_P2;Temp;Humidity;BMP_temperature;BMP_pressure;BME280_temperature;BME280_humidity;BME280_pressure;Samples;Min_cycle;Max_cycle;Signal;HPM_P1;HPM_P2
2022/02/28 00:01:53;;;;;;;0.52;0.52;;;6.10;99.90;;;;;;5035820;28;20103;-75
2022/02/28 00:04:21;;;;;;;0.40;0.40;;;6.00;99.90;;;;;;5035665;28;20033;-75
2022/02/28 00:06:47;;;;;;;0.30;0.30;;;5.90;99.90;;;;;;5035652;28;20029;-72
2022/02/28 00:09:13;;;;;;;0.57;0.57;;;5.80;99.90;;;;;;5034504;28;20053;-72
2022/02/28 00:11:38;;;;;;;0.73;0.73;;;5.70;99.90;;;;;;5034886;28;20102;-74
2022/02/28 00:14:04;;;;;;;0.20;0.20;;;5.70;99.90;;;;;;5035812;28;20025;-72
2022/02/28 00:16:30;;;;;;;0.00;0.00;;;5.60;99.90;;;;;;5035312;28;20033;-72
2022/02/28 00:18:56;;;;;;;1.00;1.00;;;5.60;99.90;;;;;;5035897;28;20079;-75
2022/02/28 00:21:22;;;;;;;0.15;0.15;;;5.60;99.90;;;;;;5035483;28;20052;-75
2022/02/28 00:23:47;;;;;;;1.50;0.68;;;5.60;99.90;;;;;;5035324;28;20029;-75
2022/02/28 00:26:13;;;;;;;0.75;0.75;;;5.60;99.90;;;;;;5036644;28;20431;-72
2022/02/28 00:28:39;;;;;;;0.25;0.20;;;5.60;99.90;;;;;;5034936;28;20032;-74
2022/02/28 00:31:05;;;;;;;0.85;0.85;;;5.60;99.90;;;;;;5035255;28;20542;-72
2022/02/28 00:33:30;;;;;;;2.72;1.85;;;5.70;99.90;;;;;;5021697;28;20022;-75
2022/02/28 00:35:56;;;;;;;0.85;0.60;;;5.80;99.90;;;;;;5015469;28;20034;-75
2022/02/28 00:38:23;;;;;;;4.22;0.73;;;5.80;99.90;;;;;;5033206;28;20033;-74
2022/02/28 00:40:49;;;;;;;0.52;0.52;;;5.90;99.90;;;;;;5035072;28;20493;-72
2022/02/28 00:43:14;;;;;;;0.30;0.30;;;6.00;99.90;;;;;;5034933;28;20029;-75
2022/02/28 00:45:40;;;;;;;0.30;0.30;;;6.00;99.90;;;;;;5034502;28;20033;-75
2022/02/28 00:48:06;;;;;;;0.60;0.60;;;6.10;99.90;;;;;;5035088;28;20401;-72
2022/02/28 00:50:32;;;;;;;0.52;0.32;;;6.20;99.90;;;;;;5034036;28;20033;-75
2022/02/28 00:52:57;;;;;;;0.47;0.47;;;6.30;99.90;;;;;;5035372;28;20108;-75
2022/02/28 00:55:23;;;;;;;3.38;2.22;;;6.30;99.90;;;;;;5034789;28;20040;-75
2022/02/28 00:57:49;;;;;;;3.47;1.75;;;6.50;99.90;;;;;;5035218;28;20068;-75
2022/02/28 01:00:17;;;;;;;0.82;0.82;;;6.60;99.90;;;;;;5036323;28;20013;-72
2022/02/28 01:02:43;;;;;;;1.08;1.02;;;6.70;99.90;;;;;;5034907;28;20092;-72
2022/02/28 01:05:09;;;;;;;22.35;2.15;;;6.90;99.90;;;;;;5034009;28;20477;-75
2022/02/28 01:07:35;;;;;;;1.75;1.52;;;7.00;99.90;;;;;;5034651;28;20466;-72
2022/02/28 01:10:03;;;;;;;1.20;1.20;;;7.10;99.90;;;;;;5034368;28;20101;-72
2022/02/28 01:12:29;;;;;;;1.55;1.10;;;7.20;99.90;;;;;;5033797;28;20029;-75
2022/02/28 01:14:54;;;;;;;2.35;1.90;;;7.30;99.90;;;;;;5035305;28;20032;-75
2022/02/28 01:17:21;;;;;;;0.55;0.55;;;7.30;99.90;;;;;;5033994;28;20025;-75
2022/02/28 01:19:47;;;;;;;1.92;1.83;;;7.40;99.90;;;;;;5034051;28;20014;-75
2022/02/28 01:22:12;;;;;;;0.17;0.17;;;7.40;99.90;;;;;;5033419;28;20447;-75
2022/02/28 01:24:39;;;;;;;2.28;1.70;;;7.40;99.90;;;;;;5033117;28;20083;-75
2022/02/28 01:27:06;;;;;;;0.47;0.47;;;7.40;99.90;;;;;;5034464;28;20512;-72
2022/02/28 01:29:31;;;;;;;2.20;1.73;;;7.40;99.90;;;;;;5035166;28;20068;-72
2022/02/28 01:31:57;;;;;;;1.55;1.45;;;7.40;99.90;;;;;;5034335;28;20508;-74
2022/02/28 01:34:22;;;;;;;4.35;2.28;;;7.40;99.90;;;;;;5014858;28;20053;-72
2022/02/28 01:36:48;;;;;;;1.60;1.02;;;7.40;99.90;;;;;;5020231;28;20064;-75
2022/02/28 01:39:14;;;;;;;1.33;1.27;;;7.40;99.90;;;;;;5034163;28;20041;-75
2022/02/28 01:41:40;;;;;;;0.65;0.65;;;7.40;99.90;;;;;;5034071;28;20025;-75
2022/02/28 01:44:06;;;;;;;0.73;0.73;;;7.40;99.90;;;;;;5033769;28;20050;-75
2022/02/28 01:46:32;;;;;;;1.35;1.25;;;7.30;99.90;;;;;;5033679;28;20041;-75
2022/02/28 01:48:58;;;;;;;0.75;0.75;;;7.30;99.90;;;;;;5033540;28;20122;-72
2022/02/28 01:51:24;;;;;;;0.63;0.60;;;7.30;99.90;;;;;;5033604;28;20027;-73
2022/02/28 01:53:50;;;;;;;3.90;2.08;;;7.20;99.90;;;;;;5032629;28;20105;-72
2022/02/28 01:56:16;;;;;;;2.00;1.85;;;7.10;99.90;;;;;;5033176;28;20096;-75
2022/02/28 01:58:44;;;;;;;1.27;1.17;;;7.10;99.90;;;;;;5033445;28;20025;-74
2022/02/28 02:01:10;;;;;;;1.90;1.10;;;7.10;99.90;;;;;;5032984;28;20436;-73
2022/02/28 02:03:35;;;;;;;0.88;0.85;;;7.10;99.90;;;;;;5033754;28;20033;-75
2022/02/28 02:06:02;;;;;;;1.63;1.52;;;7.00;99.90;;;;;;5033854;28;20076;-72
2022/02/28 02:08:28;;;;;;;0.95;0.95;;;7.00;99.90;;;;;;5032520;28;20101;-73
2022/02/28 02:10:53;;;;;;;0.47;0.47;;;6.90;99.90;;;;;;5033783;28;20022;-74
2022/02/28 02:13:20;;;;;;;2.40;1.35;;;6.70;99.90;;;;;;5033423;28;20025;-75
2022/02/28 02:15:46;;;;;;;1.75;1.17;;;6.60;99.90;;;;;;5033167;28;20026;-73
2022/02/28 02:18:12;;;;;;;0.40;0.40;;;6.60;99.90;;;;;;5032900;28;20043;-72
2022/02/28 02:20:39;;;;;;;1.48;1.38;;;6.60;99.90;;;;;;5033287;28;20030;-72
2022/02/28 02:23:11;;;;;;;0.38;0.32;;;6.50;99.90;;;;;;5033328;28;20469;-74
2022/02/28 02:25:37;;;;;;;1.33;1.03;;;6.50;99.90;;;;;;5032689;28;20481;-73
2022/02/28 02:28:05;;;;;;;0.20;0.20;;;6.50;99.90;;;;;;5031797;28;20124;-75
2022/02/28 02:30:31;;;;;;;0.30;0.30;;;6.50;99.90;;;;;;5032604;28;20033;-72
2022/02/28 02:32:57;;;;;;;0.93;0.50;;;6.50;99.90;;;;;;5025022;28;20393;-72
2022/02/28 02:35:23;;;;;;;0.43;0.43;;;6.50;99.90;;;;;;5014030;28;20034;-75
2022/02/28 02:37:49;;;;;;;1.60;1.20;;;6.50;99.90;;;;;;5026688;28;20028;-75
2022/02/28 02:40:15;;;;;;;0.70;0.55;;;6.40;99.90;;;;;;5033048;28;20026;-75
2022/02/28 02:42:41;;;;;;;48.53;1.25;;;6.30;99.90;;;;;;5033604;28;20136;-75
2022/02/28 02:45:07;;;;;;;0.38;0.38;;;6.30;99.90;;;;;;5032640;28;20053;-75
2022/02/28 02:47:33;;;;;;;0.43;0.22;;;6.30;99.90;;;;;;5032972;28;20025;-72
2022/02/28 02:49:59;;;;;;;0.10;0.10;;;6.20;99.90;;;;;;5032622;28;20040;-72
2022/02/28 02:52:25;;;;;;;0.00;0.00;;;6.20;99.90;;;;;;5032972;28;20021;-75
2022/02/28 02:54:50;;;;;;;1.88;1.13;;;6.20;99.90;;;;;;5032334;28;20025;-72
2022/02/28 02:57:20;;;;;;;2.55;1.17;;;6.20;99.90;;;;;;5032815;28;20025;-72
2022/02/28 02:59:46;;;;;;;0.22;0.22;;;6.20;99.90;;;;;;5033075;28;20022;-72
2022/02/28 03:02:12;;;;;;;0.43;0.43;;;6.30;99.90;;;;;;5032807;28;20017;-72
2022/02/28 03:04:37;;;;;;;14.98;0.80;;;6.30;99.90;;;;;;5032837;28;20092;-75
2022/02/28 03:07:17;;;;;;;0.03;0.03;;;6.30;99.90;;;;;;5032228;28;20508;-75
2022/02/28 03:09:43;;;;;;;0.10;0.10;;;6.30;99.90;;;;;;5032597;28;20167;-75
2022/02/28 03:12:09;;;;;;;3.92;1.20;;;6.30;99.90;;;;;;5034162;28;20048;-72
2022/02/28 03:14:35;;;;;;;0.63;0.63;;;6.20;99.90;;;;;;5036862;28;20076;-73
2022/02/28 03:17:01;;;;;;;0.55;0.30;;;6.20;99.90;;;;;;5036580;28;20094;-75
2022/02/28 03:19:27;;;;;;;0.20;0.20;;;6.30;99.90;;;;;;5036623;28;20021;-74
2022/02/28 03:21:52;;;;;;;0.00;0.00;;;6.30;99.90;;;;;;5037086;28;20022;-75
2022/02/28 03:24:18;;;;;;;1.02;0.80;;;6.30;99.90;;;;;;5036341;28;20119;-72
2022/02/28 03:26:44;;;;;;;0.35;0.35;;;6.30;99.90;;;;;;5035590;28;20160;-75
2022/02/28 03:29:10;;;;;;;2.08;1.25;;;6.30;99.90;;;;;;5036379;28;20226;-72
2022/02/28 03:31:35;;;;;;;0.03;0.03;;;6.30;99.90;;;;;;5036561;28;20030;-72
2022/02/28 03:34:01;;;;;;;0.20;0.20;;;6.40;99.90;;;;;;5036234;28;20041;-75
2022/02/28 03:36:27;;;;;;;0.17;0.17;;;6.40;99.90;;;;;;5037091;28;20091;-75
2022/02/28 03:38:53;;;;;;;0.15;0.15;;;6.50;99.90;;;;;;5036464;28;20404;-75
2022/02/28 03:41:19;;;;;;;0.25;0.20;;;6.50;99.90;;;;;;5035226;28;20063;-75
2022/02/28 03:43:45;;;;;;;0.20;0.20;;;6.50;99.90;;;;;;5036243;28;20046;-75
2022/02/28 03:46:10;;;;;;;0.82;0.82;;;6.60;99.90;;;;;;5036990;28;20056;-75
2022/02/28 03:48:36;;;;;;;0.00;0.00;;;6.60;99.90;;;;;;5036009;28;20029;-74
2022/02/28 03:51:04;;;;;;;0.10;0.10;;;6.60;99.90;;;;;;5036301;28;20029;-73
2022/02/28 03:53:31;;;;;;;0.00;0.00;;;6.70;99.90;;;;;;5035916;28;20108;-74
2022/02/28 03:55:58;;;;;;;2.28;0.57;;;6.70;99.90;;;;;;5036517;28;20054;-74
2022/02/28 03:58:24;;;;;;;0.10;0.10;;;6.70;99.90;;;;;;5036200;28;20032;-75
2022/02/28 04:00:50;;;;;;;0.15;0.15;;;6.80;99.90;;;;;;5036326;28;20482;-75
2022/02/28 04:03:16;;;;;;;0.10;0.10;;;6.80;99.90;;;;;;5035685;28;20022;-73
2022/02/28 04:05:42;;;;;;;0.20;0.20;;;6.80;99.90;;;;;;5035863;28;20452;-75
2022/02/28 04:08:08;;;;;;;0.77;0.30;;;6.90;99.90;;;;;;5034522;28;20048;-75
2022/02/28 04:10:34;;;;;;;0.00;0.00;;;6.90;99.90;;;;;;5036247;28;20508;-75
2022/02/28 04:12:59;;;;;;;0.00;0.00;;;6.90;99.90;;;;;;5034932;28;20053;-73
2022/02/28 04:15:25;;;;;;;0.00;0.00;;;6.90;99.90;;;;;;5035207;28;20404;-75
2022/02/28 04:17:51;;;;;;;0.20;0.20;;;7.00;99.90;;;;;;5034979;28;20554;-75
2022/02/28 04:20:19;;;;;;;0.00;0.00;;;7.00;99.90;;;;;;5036206;28;20017;-73
2022/02/28 04:22:45;;;;;;;0.00;0.00;;;7.10;99.90;;;;;;5034696;28;20493;-73
2022/02/28 04:25:11;;;;;;;0.00;0.00;;;7.10;99.90;;;;;;5034928;28;20030;-73
2022/02/28 04:27:36;;;;;;;0.10;0.10;;;7.20;99.90;;;;;;5034917;28;20048;-74
2022/02/28 04:30:03;;;;;;;0.00;0.00;;;7.20;99.90;;;;;;5035453;28;20029;-73
2022/02/28 04:32:29;;;;;;;0.20;0.20;;;7.20;99.90;;;;;;5035219;28;20116;-73
2022/02/28 04:34:55;;;;;;;0.00;0.00;;;7.20;99.90;;;;;;5035087;28;20144;-75
2022/02/28 04:37:20;;;;;;;0.15;0.15;;;7.20;99.90;;;;;;5034927;28;20025;-73
2022/02/28 04:39:46;;;;;;;0.00;0.00;;;7.20;99.90;;;;;;5034952;28;20108;-73
2022/02/28 04:42:12;;;;;;;0.00;0.00;;;7.20;99.90;;;;;;5035418;28;20013;-74
2022/02/28 04:44:37;;;;;;;0.00;0.00;;;7.30;99.90;;;;;;5035040;28;20046;-73
2022/02/28 04:47:03;;;;;;;0.00;0.00;;;7.40;99.90;;;;;;5035406;28;20095;-75
2022/02/28 04:49:29;;;;;;;0.00;0.00;;;7.40;99.90;;;;;;5034736;28;20461;-75
2022/02/28 04:51:55;;;;;;;0.00;0.00;;;7.30;99.90;;;;;;5034531;28;20026;-75
2022/02/28 04:54:20;;;;;;;0.03;0.03;;;7.40;99.90;;;;;;5034847;28;20508;-73
2022/02/28 04:56:46;;;;;;;0.00;0.00;;;7.30;99.90;;;;;;5034801;28;20120;-73
2022/02/28 04:59:11;;;;;;;0.00;0.00;;;7.40;99.90;;;;;;5035077;28;20460;-73
2022/02/28 05:01:37;;;;;;;0.00;0.00;;;7.30;99.90;;;;;;5035146;28;20447;-73
2022/02/28 05:04:03;;;;;;;0.63;0.38;;;7.40;99.90;;;;;;5032714;28;20079;-75
2022/02/28 05:06:29;;;;;;;0.00;0.00;;;7.40;99.90;;;;;;5034846;28;20092;-75
2022/02/28 05:08:54;;;;;;;0.15;0.15;;;7.30;99.90;;;;;;5033734;28;20052;-73
2022/02/28 05:11:20;;;;;;;0.00;0.00;;;7.40;99.90;;;;;;5035916;28;20022;-75
2022/02/28 05:13:45;;;;;;;0.00;0.00;;;7.30;99.90;;;;;;5038968;28;20048;-75
2022/02/28 05:16:11;;;;;;;0.00;0.00;;;7.30;99.90;;;;;;5033599;28;20053;-75
2022/02/28 05:18:37;;;;;;;0.00;0.00;;;7.20;99.90;;;;;;5034262;28;20524;-73
2022/02/28 05:21:02;;;;;;;0.08;0.08;;;7.20;99.90;;;;;;5034457;28;20052;-75
2022/02/28 05:23:28;;;;;;;0.20;0.20;;;7.20;99.90;;;;;;5033732;28;20469;-75
2022/02/28 05:25:54;;;;;;;0.10;0.10;;;7.20;99.90;;;;;;5035031;28;20026;-75
2022/02/28 05:28:19;;;;;;;0.00;0.00;;;7.10;99.90;;;;;;5033609;28;20041;-73
2022/02/28 05:30:47;;;;;;;0.38;0.35;;;7.10;99.90;;;;;;5034363;28;20052;-75
2022/02/28 05:33:15;;;;;;;0.00;0.00;;;7.00;99.90;;;;;;5033497;28;20036;-74
2022/02/28 05:35:41;;;;;;;0.00;0.00;;;6.80;99.90;;;;;;5013606;28;20552;-75
2022/02/28 05:38:07;;;;;;;0.00;0.00;;;6.80;99.90;;;;;;5029542;28;20029;-73
2022/02/28 05:40:33;;;;;;;0.65;0.15;;;6.80;99.90;;;;;;5033654;28;20033;-75
2022/02/28 05:42:59;;;;;;;0.00;0.00;;;6.70;99.90;;;;;;5032638;28;20515;-73
2022/02/28 05:45:24;;;;;;;0.00;0.00;;;6.70;99.90;;;;;;5033974;28;20042;-75
2022/02/28 05:47:50;;;;;;;0.00;0.00;;;6.60;99.90;;;;;;5033809;28;20025;-75
2022/02/28 05:50:16;;;;;;;0.00;0.00;;;6.60;99.90;;;;;;5033619;28;20428;-75
2022/02/28 05:52:45;;;;;;;0.00;0.00;;;6.60;99.90;;;;;;5033529;28;20026;-73
2022/02/28 05:55:11;;;;;;;0.00;0.00;;;6.50;99.90;;;;;;5033484;28;20025;-75
2022/02/28 05:57:38;;;;;;;2.72;1.30;;;6.50;99.90;;;;;;5033530;28;20064;-73
2022/02/28 06:00:07;;;;;;;0.00;0.00;;;6.40;99.90;;;;;;5034050;28;20507;-75
2022/02/28 06:02:33;;;;;;;0.00;0.00;;;6.30;99.90;;;;;;5033652;28;20032;-75
2022/02/28 06:04:59;;;;;;;0.08;0.08;;;6.30;99.90;;;;;;5033933;28;20022;-74
2022/02/28 06:07:24;;;;;;;0.98;0.98;;;6.20;99.90;;;;;;5031365;28;20701;-73
2022/02/28 06:09:50;;;;;;;0.00;0.00;;;6.20;99.90;;;;;;5032670;28;20512;-75
2022/02/28 06:12:16;;;;;;;0.00;0.00;;;6.20;99.90;;;;;;5033736;28;20481;-73
2022/02/28 06:14:42;;;;;;;0.00;0.00;;;6.20;99.90;;;;;;5033369;28;20100;-75
2022/02/28 06:17:07;;;;;;;0.00;0.00;;;6.20;99.90;;;;;;5032787;28;20132;-74
2022/02/28 06:19:33;;;;;;;0.10;0.10;;;6.20;99.90;;;;;;5033237;28;20097;-73
2022/02/28 06:22:02;;;;;;;0.17;0.17;;;6.10;99.90;;;;;;5033382;28;20075;-75
2022/02/28 06:24:27;;;;;;;0.30;0.30;;;6.10;99.90;;;;;;5032195;28;20564;-73
2022/02/28 06:26:53;;;;;;;0.30;0.20;;;6.00;99.90;;;;;;5033591;28;20168;-73
2022/02/28 06:29:19;;;;;;;1.20;1.10;;;6.00;99.90;;;;;;5032489;28;20080;-74
2022/02/28 06:31:45;;;;;;;0.17;0.17;;;5.90;99.90;;;;;;5033286;28;20032;-75
2022/02/28 06:34:12;;;;;;;0.00;0.00;;;5.80;99.90;;;;;;5024680;28;20026;-75
2022/02/28 06:36:41;;;;;;;0.00;0.00;;;5.80;99.90;;;;;;5016607;28;20481;-73
2022/02/28 06:39:07;;;;;;;2.42;2.22;;;5.60;99.90;;;;;;5030129;28;20071;-75
2022/02/28 06:41:33;;;;;;;0.00;0.00;;;5.50;99.90;;;;;;5030193;28;20030;-75
2022/02/28 06:43:59;;;;;;;0.93;0.93;;;5.50;99.90;;;;;;5031742;28;20513;-75
2022/02/28 06:46:26;;;;;;;0.82;0.82;;;5.40;99.90;;;;;;5032514;28;20018;-75
2022/02/28 06:48:52;;;;;;;0.22;0.22;;;5.40;99.90;;;;;;5032158;28;20022;-75
2022/02/28 06:51:18;;;;;;;0.35;0.35;;;5.30;99.90;;;;;;5032068;28;20088;-73
2022/02/28 06:53:44;;;;;;;0.08;0.08;;;5.20;99.90;;;;;;5032058;28;20096;-75
2022/02/28 06:56:10;;;;;;;0.50;0.50;;;5.20;99.90;;;;;;5032475;28;20117;-73
2022/02/28 06:58:36;;;;;;;0.85;0.85;;;5.30;99.90;;;;;;5031153;28;20396;-73
2022/02/28 07:01:02;;;;;;;0.55;0.50;;;5.20;99.90;;;;;;5032627;28;20021;-73
2022/02/28 07:03:30;;;;;;;0.38;0.38;;;5.10;99.90;;;;;;5031172;28;20076;-75
2022/02/28 07:05:58;;;;;;;0.35;0.35;;;5.10;99.90;;;;;;5029573;28;20026;-75
2022/02/28 07:08:24;;;;;;;0.08;0.08;;;5.00;99.90;;;;;;5030958;28;20086;-75
2022/02/28 07:10:51;;;;;;;0.90;0.60;;;5.00;99.90;;;;;;5030010;28;20061;-73
2022/02/28 07:13:16;;;;;;;0.52;0.52;;;5.00;99.90;;;;;;5029440;28;20026;-75
2022/02/28 07:15:44;;;;;;;0.00;0.00;;;5.10;99.90;;;;;;5024548;28;20099;-73
2022/02/28 07:18:11;;;;;;;0.43;0.43;;;5.00;99.90;;;;;;5029177;28;20050;-74
2022/02/28 07:20:37;;;;;;;0.65;0.45;;;5.10;99.90;;;;;;5028351;28;20033;-74
2022/02/28 07:23:04;;;;;;;0.00;0.00;;;5.10;99.90;;;;;;5030956;28;20519;-75
2022/02/28 07:25:30;;;;;;;0.00;0.00;;;5.00;99.90;;;;;;5029182;28;20478;-75
2022/02/28 07:27:56;;;;;;;0.65;0.65;;;5.10;99.90;;;;;;5027061;28;20036;-74
2022/02/28 07:30:21;;;;;;;0.52;0.52;;;5.20;99.90;;;;;;5028803;28;20408;-73
2022/02/28 07:32:48;;;;;;;0.00;0.00;;;5.20;99.90;;;;;;5029524;28;20021;-73
2022/02/28 07:35:14;;;;;;;4.38;1.25;;;5.40;99.90;;;;;;5026224;28;20026;-75
2022/02/28 07:37:41;;;;;;;0.13;0.13;;;5.50;99.90;;;;;;5028713;28;20029;-73
2022/02/28 07:40:09;;;;;;;0.35;0.35;;;5.70;99.90;;;;;;5013603;28;20041;-73
2022/02/28 07:42:35;;;;;;;0.00;0.00;;;5.60;99.90;;;;;;5025823;28;20014;-74
2022/02/28 07:45:02;;;;;;;1.33;1.25;;;5.70;99.90;;;;;;5028006;28;20045;-73
2022/02/28 07:47:28;;;;;;;0.63;0.63;;;5.70;99.90;;;;;;5023044;28;20415;-74
2022/02/28 07:49:54;;;;;;;1.27;1.10;;;5.90;99.90;;;;;;5023937;28;20033;-74
2022/02/28 07:52:19;;;;;;;0.10;0.10;;;6.00;99.90;;;;;;5024254;28;20041;-73
2022/02/28 07:54:45;;;;;;;0.47;0.47;;;6.00;99.90;;;;;;5026403;28;20026;-75
2022/02/28 07:57:11;;;;;;;1.08;0.77;;;6.10;99.90;;;;;;5028885;28;20079;-74
2022/02/28 07:59:36;;;;;;;0.57;0.57;;;6.30;99.90;;;;;;5028946;28;20105;-75
2022/02/28 08:02:02;;;;;;;0.10;0.10;;;6.40;99.90;;;;;;5032045;28;20503;-73
2022/02/28 08:04:28;;;;;;;0.10;0.10;;;6.50;99.90;;;;;;5020992;28;20025;-75
2022/02/28 08:06:53;;;;;;;4.22;1.42;;;6.60;99.90;;;;;;5022847;28;20075;-74
2022/02/28 08:09:21;;;;;;;0.20;0.20;;;6.80;99.90;;;;;;5026957;28;20029;-73
2022/02/28 08:11:47;;;;;;;0.60;0.55;;;7.00;99.90;;;;;;5027414;28;20025;-75
2022/02/28 08:14:13;;;;;;;0.35;0.35;;;7.20;99.90;;;;;;5028193;28;20026;-75
2022/02/28 08:16:39;;;;;;;0.20;0.20;;;7.20;99.90;;;;;;5021253;28;20041;-73
2022/02/28 08:19:04;;;;;;;0.55;0.55;;;7.50;99.90;;;;;;5031636;28;20034;-75
2022/02/28 08:21:30;;;;;;;0.55;0.55;;;7.70;99.90;;;;;;5030862;28;20025;-73
2022/02/28 08:23:55;;;;;;;0.25;0.25;;;7.80;99.90;;;;;;5023130;28;20033;-73
2022/02/28 08:26:21;;;;;;;1.85;1.05;;;8.00;99.90;;;;;;5016124;28;20041;-75
2022/02/28 08:28:47;;;;;;;0.00;0.00;;;8.00;99.90;;;;;;5018802;28;20052;-72
2022/02/28 08:31:12;;;;;;;0.30;0.30;;;7.90;99.90;;;;;;5026380;28;20373;-72
2022/02/28 08:33:38;;;;;;;0.00;0.00;;;7.80;99.90;;;;;;5019377;28;20404;-72
2022/02/28 08:36:04;;;;;;;1.55;1.25;;;7.70;99.90;;;;;;5025008;28;20035;-72
2022/02/28 08:38:30;;;;;;;0.47;0.47;;;7.80;99.90;;;;;;5023089;28;20069;-72
2022/02/28 08:40:55;;;;;;;0.90;0.90;;;7.90;99.90;;;;;;5021626;28;20426;-73
2022/02/28 08:43:21;;;;;;;0.98;0.82;;;8.00;99.90;;;;;;5024879;28;20037;-72
2022/02/28 08:45:46;;;;;;;0.00;0.00;;;8.00;99.90;;;;;;5019344;28;20056;-72
2022/02/28 08:48:12;;;;;;;0.10;0.10;;;8.00;99.90;;;;;;5014461;28;20048;-71
2022/02/28 08:50:38;;;;;;;0.50;0.30;;;8.10;99.90;;;;;;5019215;28;20212;-72
2022/02/28 08:53:04;;;;;;;0.95;0.57;;;8.00;99.90;;;;;;5019686;28;20462;-72
2022/02/28 08:55:29;;;;;;;0.45;0.43;;;8.00;99.90;;;;;;5020498;28;20415;-71
2022/02/28 08:57:55;;;;;;;0.10;0.10;;;8.10;99.90;;;;;;5025020;28;20068;-73
2022/02/28 09:00:21;;;;;;;1.75;0.63;;;8.20;99.90;;;;;;5026084;28;20049;-71
2022/02/28 09:02:47;;;;;;;1.35;0.30;;;8.20;99.90;;;;;;5030979;28;20040;-71
2022/02/28 09:05:13;;;;;;;0.35;0.30;;;8.30;99.90;;;;;;5028445;28;20098;-72
2022/02/28 09:07:39;;;;;;;0.38;0.38;;;8.30;99.90;;;;;;5030114;28;20064;-73
2022/02/28 09:10:06;;;;;;;0.57;0.57;;;8.40;99.90;;;;;;5030127;28;20527;-71
2022/02/28 09:12:32;;;;;;;0.10;0.10;;;8.40;99.90;;;;;;5028531;28;20021;-73
2022/02/28 09:15:00;;;;;;;0.90;0.80;;;8.50;99.90;;;;;;5029289;28;20025;-71
2022/02/28 09:17:26;;;;;;;0.52;0.22;;;8.90;99.90;;;;;;5030311;28;20087;-71
2022/02/28 09:19:52;;;;;;;0.30;0.30;;;8.90;99.90;;;;;;5030922;28;20017;-73
2022/02/28 09:22:18;;;;;;;0.57;0.57;;;9.20;99.90;;;;;;5030394;28;20029;-73
2022/02/28 09:24:44;;;;;;;0.10;0.10;;;9.40;99.90;;;;;;5029055;28;20014;-71
2022/02/28 09:27:10;;;;;;;0.50;0.50;;;9.60;99.90;;;;;;5029188;28;20069;-71
2022/02/28 09:29:36;;;;;;;0.45;0.40;;;9.70;99.90;;;;;;5029207;28;20076;-72
2022/02/28 09:32:03;;;;;;;0.35;0.35;;;9.80;99.90;;;;;;5024667;28;20033;-73
2022/02/28 09:34:29;;;;;;;0.57;0.57;;;10.00;99.90;;;;;;5026894;28;20022;-71
2022/02/28 09:36:55;;;;;;;0.20;0.20;;;10.20;99.90;;;;;;5027573;28;20639;-73
2022/02/28 09:39:21;;;;;;;0.20;0.20;;;10.40;99.90;;;;;;5017189;28;20120;-72
2022/02/28 09:41:49;;;;;;;0.30;0.30;;;10.50;99.90;;;;;;5031396;28;20025;-73
2022/02/28 09:44:15;;;;;;;0.90;0.90;;;10.60;99.90;;;;;;5025987;28;20041;-74
2022/02/28 09:46:45;;;;;;;5.18;2.28;;;11.50;99.90;;;;;;5028522;28;20948;-73
2022/02/28 09:49:11;;;;;;;2.40;2.20;;;12.20;99.90;;;;;;5030086;28;20026;-73
2022/02/28 09:51:38;;;;;;;1.08;0.98;;;12.80;99.90;;;;;;5013094;28;20473;-74
2022/02/28 09:54:04;;;;;;;0.73;0.73;;;13.10;99.90;;;;;;5016830;28;20025;-72
2022/02/28 09:56:30;;;;;;;0.95;0.95;;;13.10;99.90;;;;;;5026557;28;20025;-74
2022/02/28 09:58:56;;;;;;;2.00;0.90;;;12.90;99.90;;;;;;5027470;28;20067;-74
2022/02/28 10:01:22;;;;;;;0.40;0.40;;;12.50;99.90;;;;;;5029665;28;20128;-74
2022/02/28 10:03:48;;;;;;;4.05;1.15;;;12.50;99.90;;;;;;5030053;28;20024;-74
2022/02/28 10:06:14;;;;;;;1.20;0.70;;;12.30;99.90;;;;;;5027724;28;20037;-72
2022/02/28 10:08:47;;;;;;;0.40;0.40;;;12.30;99.90;;;;;;5025896;28;20026;-73
2022/02/28 10:11:25;;;;;;;0.95;0.85;;;12.20;99.90;;;;;;5026461;28;20026;-73
2022/02/28 10:13:52;;;;;;;1.48;0.80;;;12.10;99.90;;;;;;5029166;28;20392;-74
2022/02/28 10:16:58;;;;;;;0.60;0.40;;;12.00;99.90;;;;;;5027614;28;20120;-72
2022/02/28 10:19:28;;;;;;;6.60;0.50;;;12.00;99.90;;;;;;5028101;28;20480;-72
2022/02/28 10:22:04;;;;;;;1.35;0.30;;;12.30;99.90;;;;;;5029773;28;20033;-72
2022/02/28 10:24:37;;;;;;;0.20;0.20;;;12.70;99.90;;;;;;5035128;28;20476;-74
2022/02/28 10:27:03;;;;;;;0.55;0.32;;;12.90;99.90;;;;;;5041356;28;20048;-72
2022/02/28 10:29:32;;;;;;;0.82;0.82;;;12.80;99.90;;;;;;5025492;28;20527;-74
2022/02/28 10:32:00;;;;;;;1.95;1.50;;;12.70;99.90;;;;;;5028989;28;20010;-72
2022/02/28 10:34:29;;;;;;;1.77;0.22;;;12.50;99.90;;;;;;5030192;28;20017;-72
2022/02/28 10:36:57;;;;;;;1.45;0.43;;;12.70;99.90;;;;;;5029228;28;20518;-73
2022/02/28 10:39:36;;;;;;;0.65;0.65;;;13.00;99.90;;;;;;5029566;28;20101;-72
2022/02/28 10:42:06;;;;;;;0.30;0.30;;;12.80;99.90;;;;;;5028989;28;20412;-73
2022/02/28 10:44:33;;;;;;;0.17;0.17;;;12.80;99.90;;;;;;5014292;28;20524;-73
2022/02/28 10:47:03;;;;;;;0.20;0.20;;;12.70;99.90;;;;;;5024894;28;20050;-73
2022/02/28 10:49:32;;;;;;;0.20;0.20;;;12.80;99.90;;;;;;5022528;28;20120;-73
2022/02/28 10:52:00;;;;;;;0.00;0.00;;;12.90;99.90;;;;;;5022930;28;20029;-73
2022/02/28 10:54:28;;;;;;;0.40;0.40;;;12.90;99.90;;;;;;5028962;28;20029;-72
2022/02/28 10:56:54;;;;;;;1.00;0.85;;;13.00;99.90;;;;;;5028814;28;20516;-73
2022/02/28 10:59:23;;;;;;;0.43;0.20;;;13.20;99.90;;;;;;5025663;28;20029;-72
2022/02/28 11:01:49;;;;;;;1.20;0.40;;;13.30;99.90;;;;;;5028532;28;20401;-73
2022/02/28 11:04:15;;;;;;;0.50;0.50;;;13.40;99.90;;;;;;5029154;28;20374;-73
2022/02/28 11:06:46;;;;;;;0.40;0.40;;;13.40;99.90;;;;;;5028487;28;20079;-74
2022/02/28 11:09:11;;;;;;;1.95;1.13;;;13.40;99.90;;;;;;5026783;28;20037;-71
2022/02/28 11:11:37;;;;;;;1.80;1.42;;;13.40;99.90;;;;;;5028323;28;20021;-72
2022/02/28 11:14:03;;;;;;;0.40;0.40;;;13.40;99.90;;;;;;5027716;28;20031;-71
2022/02/28 11:16:30;;;;;;;0.32;0.32;;;13.50;99.90;;;;;;5003032;28;20548;-74
2022/02/28 11:18:56;;;;;;;14.18;1.55;;;13.50;99.90;;;;;;5017452;28;20033;-74
2022/02/28 11:21:22;;;;;;;1.35;0.70;;;13.50;99.90;;;;;;5034394;28;20025;-74
2022/02/28 11:23:48;;;;;;;3.63;0.30;;;13.80;99.90;;;;;;5014743;28;20439;-73
2022/02/28 11:26:15;;;;;;;0.25;0.25;;;14.00;99.90;;;;;;5028342;28;20388;-74
2022/02/28 11:28:41;;;;;;;3.65;1.50;;;14.00;99.90;;;;;;5025127;28;20577;-73
2022/02/28 11:31:12;;;;;;;1.73;1.05;;;14.00;99.90;;;;;;5021134;28;20439;-72
2022/02/28 11:33:39;;;;;;;2.30;1.15;;;14.00;99.90;;;;;;5022592;28;20037;-73
2022/02/28 11:36:05;;;;;;;0.63;0.63;;;14.00;99.90;;;;;;5017898;28;20112;-73
2022/02/28 11:38:31;;;;;;;0.57;0.57;;;14.10;99.90;;;;;;5025121;28;20061;-74
2022/02/28 11:41:04;;;;;;;3.50;0.40;;;14.10;99.90;;;;;;5024658;28;20068;-73
2022/02/28 11:43:31;;;;;;;;;;;14.10;99.90;;;;;;5014508;28;20040;-72
2022/02/28 11:46:00;;;;;;;0.73;0.73;;;14.20;99.90;;;;;;5021004;28;20074;-73
2022/02/28 11:48:30;;;;;;;2.85;0.30;;;14.10;99.90;;;;;;5022657;28;20025;-75
2022/02/28 11:51:10;;;;;;;0.00;0.00;;;14.20;99.90;;;;;;5010203;28;20385;-74
2022/02/28 11:53:49;;;;;;;0.45;0.45;;;14.10;99.90;;;;;;5030026;28;20063;-73
2022/02/28 11:56:18;;;;;;;1.17;0.25;;;14.10;99.90;;;;;;5018426;28;20060;-75
2022/02/28 11:58:54;;;;;;;0.20;0.20;;;14.00;99.90;;;;;;5011024;28;20425;-73
2022/02/28 12:01:28;;;;;;;0.22;0.22;;;14.00;99.90;;;;;;5010845;28;20493;-75
2022/02/28 12:04:16;;;;;;;0.82;0.82;;;14.20;99.90;;;;;;5009844;28;20030;-73
2022/02/28 12:06:55;;;;;;;0.05;0.05;;;13.90;99.90;;;;;;5017903;28;20038;-75
2022/02/28 12:09:32;;;;;;;0.52;0.17;;;14.00;99.90;;;;;;5006500;28;20036;-75
2022/02/28 12:12:13;;;;;;;0.30;0.30;;;14.10;99.90;;;;;;5027038;28;20033;-73
2022/02/28 12:14:57;;;;;;;1.20;0.75;;;14.30;99.90;;;;;;5030956;28;20028;-75
2022/02/28 12:17:50;;;;;;;3.60;0.47;;;14.40;99.90;;;;;;5030533;28;20103;-71
2022/02/28 12:20:28;;;;;;;1.00;0.75;;;14.60;99.90;;;;;;5031284;28;20141;-73
2022/02/28 12:23:09;;;;;;;1.95;1.23;;;14.60;99.90;;;;;;5028181;28;20036;-74
2022/02/28 12:25:34;;;;;;;0.65;0.65;;;14.80;99.90;;;;;;5033015;28;20251;-74
2022/02/28 12:28:23;;;;;;;0.10;0.10;;;14.80;99.90;;;;;;5028798;28;20477;-73
2022/02/28 12:30:49;;;;;;;1.55;0.77;;;14.60;99.90;;;;;;5035375;28;20087;-73
2022/02/28 12:33:19;;;;;;;0.10;0.10;;;14.60;99.90;;;;;;5028258;28;20025;-71
2022/02/28 12:35:59;;;;;;;2.85;2.15;;;14.80;99.90;;;;;;5038524;28;20482;-75
2022/02/28 12:38:34;;;;;;;2.53;0.98;;;15.00;99.90;;;;;;5023168;28;20072;-75
2022/02/28 12:41:03;;;;;;;0.93;0.93;;;15.10;99.90;;;;;;5029998;28;20033;-75
2022/02/28 12:43:30;;;;;;;0.63;0.63;;;14.90;99.90;;;;;;5036782;28;20064;-75
2022/02/28 12:46:03;;;;;;;3.67;0.77;;;15.00;99.90;;;;;;5028825;28;20485;-76
2022/02/28 12:48:30;;;;;;;0.98;0.30;;;15.10;99.90;;;;;;5043157;28;20498;-74
2022/02/28 12:51:01;;;;;;;0.10;0.10;;;15.40;99.90;;;;;;5036381;28;20386;-75
2022/02/28 12:53:29;;;;;;;0.10;0.10;;;15.40;99.90;;;;;;5032058;28;20475;-75
2022/02/28 12:56:21;;;;;;;0.38;0.38;;;15.30;99.90;;;;;;5042081;28;20042;-75